sensor_id;sensor_type;location;lat;lon;timestamp;pressure;altitude;pressure_sealevel;temperature;humidity
23321;BME280;33376;51.306;4.752;2023-04-26T00:00:00;102201.41;;;2.12;nan
23321;BME280;33376;51.306;4.752;2023-04-26T00:02:25;102204.00;;;2.00;nan
23321;BME280;33376;51.306;4.752;2023-04-26T00:04:54;102209.22;;;1.91;nan
23321;BME280;33376;51.306;4.752;2023-04-26T00:07:22;102204.88;;;1.96;nan
23321;BME280;33376;51.306;4.752;2023-04-26T00:09:49;102207.47;;;1.96;nan
23321;BME280;33376;51.306;4.752;2023-04-26T00:12:14;102198.75;;;1.95;nan
23321;BME280;33376;51.306;4.752;2023-04-26T00:14:39;102203.09;;;1.89;nan
23321;BME280;33376;51.306;4.752;2023-04-26T00:17:04;102195.25;;;1.89;nan
23321;BME280;33376;51.306;4.752;2023-04-26T00:19:30;102198.75;;;1.82;nan
23321;BME280;33376;51.306;4.752;2023-04-26T00:21:56;102190.91;;;1.80;nan
23321;BME280;33376;51.306;4.752;2023-04-26T00:24:21;102201.31;;;1.74;nan
23321;BME280;33376;51.306;4.752;2023-04-26T00:26:46;102197.84;;;1.75;nan
23321;BME280;33376;51.306;4.752;2023-04-26T00:29:12;102197.84;;;1.74;nan
23321;BME280;33376;51.306;4.752;2023-04-26T00:31:37;102182.13;;;1.63;nan
23321;BME280;33376;51.306;4.752;2023-04-26T00:34:02;102187.34;;;1.63;nan
23321;BME280;33376;51.306;4.752;2023-04-26T00:36:28;102191.72;;;1.64;nan
23321;BME280;33376;51.306;4.752;2023-04-26T00:38:53;102180.38;;;1.68;nan
23321;BME280;33376;51.306;4.752;2023-04-26T00:41:18;102186.50;;;1.64;nan
23321;BME280;33376;51.306;4.752;2023-04-26T00:43:43;102181.25;;;1.63;nan
23321;BME280;33376;51.306;4.752;2023-04-26T00:46:09;102174.25;;;1.56;nan
23321;BME280;33376;51.306;4.752;2023-04-26T00:48:37;102167.25;;;1.45;nan
23321;BME280;33376;51.306;4.752;2023-04-26T00:51:03;102168.13;;;1.41;nan
23321;BME280;33376;51.306;4.752;2023-04-26T00:53:29;102164.63;;;1.41;nan
23321;BME280;33376;51.306;4.752;2023-04-26T00:55:55;102160.22;;;1.28;nan
23321;BME280;33376;51.306;4.752;2023-04-26T00:58:21;102154.97;;;1.22;nan
23321;BME280;33376;51.306;4.752;2023-04-26T01:00:46;102156.69;;;1.18;nan
23321;BME280;33376;51.306;4.752;2023-04-26T01:03:11;102153.19;;;1.15;nan
23321;BME280;33376;51.306;4.752;2023-04-26T01:05:37;102146.25;;;1.20;nan
23321;BME280;33376;51.306;4.752;2023-04-26T01:08:02;102141.91;;;1.22;nan
23321;BME280;33376;51.306;4.752;2023-04-26T01:10:29;102147.94;;;1.15;nan
23321;BME280;33376;51.306;4.752;2023-04-26T01:12:55;102148.81;;;1.11;nan
23321;BME280;33376;51.306;4.752;2023-04-26T01:15:21;102156.66;;;1.09;nan
23321;BME280;33376;51.306;4.752;2023-04-26T01:17:47;102161.88;;;1.09;nan
23321;BME280;33376;51.306;4.752;2023-04-26T01:20:13;102142.72;;;1.15;nan
23321;BME280;33376;51.306;4.752;2023-04-26T01:22:38;102148.00;;;1.18;nan
23321;BME280;33376;51.306;4.752;2023-04-26T01:25:04;102140.09;;;1.12;nan
23321;BME280;33376;51.306;4.752;2023-04-26T01:27:31;102137.56;;;1.21;nan
23321;BME280;33376;51.306;4.752;2023-04-26T01:29:57;102135.84;;;1.24;nan
23321;BME280;33376;51.306;4.752;2023-04-26T01:32:22;102139.31;;;1.28;nan
23321;BME280;33376;51.306;4.752;2023-04-26T01:34:47;102136.69;;;1.20;nan
23321;BME280;33376;51.306;4.752;2023-04-26T01:37:12;102141.91;;;1.23;nan
23321;BME280;33376;51.306;4.752;2023-04-26T01:39:38;102138.41;;;1.20;nan
23321;BME280;33376;51.306;4.752;2023-04-26T01:42:03;102142.78;;;1.19;nan
23321;BME280;33376;51.306;4.752;2023-04-26T01:44:29;102133.16;;;1.11;nan
23321;BME280;33376;51.306;4.752;2023-04-26T01:46:54;102131.34;;;1.01;nan
23321;BME280;33376;51.306;4.752;2023-04-26T01:49:20;102130.50;;;1.03;nan
23321;BME280;33376;51.306;4.752;2023-04-26T01:51:45;102135.75;;;1.03;nan
23321;BME280;33376;51.306;4.752;2023-04-26T01:54:10;102133.16;;;1.08;nan
23321;BME280;33376;51.306;4.752;2023-04-26T01:56:35;102138.38;;;1.08;nan
23321;BME280;33376;51.306;4.752;2023-04-26T01:59:01;102123.59;;;1.14;nan
23321;BME280;33376;51.306;4.752;2023-04-26T02:01:26;102126.19;;;1.08;nan
23321;BME280;33376;51.306;4.752;2023-04-26T02:03:51;102121.81;;;1.04;nan
23321;BME280;33376;51.306;4.752;2023-04-26T02:06:16;102120.06;;;1.02;nan
23321;BME280;33376;51.306;4.752;2023-04-26T02:08:42;102114.78;;;0.94;nan
23321;BME280;33376;51.306;4.752;2023-04-26T02:11:07;102122.56;;;0.82;nan
23321;BME280;33376;51.306;4.752;2023-04-26T02:13:32;102115.63;;;0.87;nan
23321;BME280;33376;51.306;4.752;2023-04-26T02:15:58;102110.44;;;0.90;nan
23321;BME280;33376;51.306;4.752;2023-04-26T02:18:23;102120.84;;;0.86;nan
23321;BME280;33376;51.306;4.752;2023-04-26T02:20:48;102107.72;;;0.75;nan
23321;BME280;33376;51.306;4.752;2023-04-26T02:23:14;102112.09;;;0.72;nan
23321;BME280;33376;51.306;4.752;2023-04-26T02:25:39;102116.41;;;0.67;nan
23321;BME280;33376;51.306;4.752;2023-04-26T02:28:05;102112.03;;;0.69;nan
23321;BME280;33376;51.306;4.752;2023-04-26T02:30:31;102112.94;;;0.71;nan
23321;BME280;33376;51.306;4.752;2023-04-26T02:32:56;102102.47;;;0.68;nan
23321;BME280;33376;51.306;4.752;2023-04-26T02:35:21;102105.06;;;0.66;nan
23321;BME280;33376;51.306;4.752;2023-04-26T02:37:47;102104.19;;;0.67;nan
23321;BME280;33376;51.306;4.752;2023-04-26T02:40:17;102105.06;;;0.66;nan
23321;BME280;33376;51.306;4.752;2023-04-26T02:42:42;102107.69;;;0.66;nan
23321;BME280;33376;51.306;4.752;2023-04-26T02:45:07;102101.59;;;0.66;nan
23321;BME280;33376;51.306;4.752;2023-04-26T02:47:33;102096.38;;;0.66;nan
23321;BME280;33376;51.306;4.752;2023-04-26T02:50:01;102094.63;;;0.65;nan
23321;BME280;33376;51.306;4.752;2023-04-26T02:52:26;102089.44;;;0.71;nan
23321;BME280;33376;51.306;4.752;2023-04-26T02:54:51;102092.03;;;0.71;nan
23321;BME280;33376;51.306;4.752;2023-04-26T02:57:16;102092.91;;;0.62;nan
23321;BME280;33376;51.306;4.752;2023-04-26T02:59:42;102087.63;;;0.61;nan
23321;BME280;33376;51.306;4.752;2023-04-26T03:02:08;102092.91;;;0.67;nan
23321;BME280;33376;51.306;4.752;2023-04-26T03:04:33;102085.88;;;0.58;nan
23321;BME280;33376;51.306;4.752;2023-04-26T03:07:01;102086.78;;;0.62;nan
23321;BME280;33376;51.306;4.752;2023-04-26T03:09:26;102085.00;;;0.58;nan
23321;BME280;33376;51.306;4.752;2023-04-26T03:11:51;102076.34;;;0.59;nan
23321;BME280;33376;51.306;4.752;2023-04-26T03:14:16;102084.16;;;0.59;nan
23321;BME280;33376;51.306;4.752;2023-04-26T03:16:42;102091.06;;;0.48;nan
23321;BME280;33376;51.306;4.752;2023-04-26T03:19:08;102086.72;;;0.53;nan
23321;BME280;33376;51.306;4.752;2023-04-26T03:21:34;102075.41;;;0.48;nan
23321;BME280;33376;51.306;4.752;2023-04-26T03:23:59;102067.53;;;0.43;nan
23321;BME280;33376;51.306;4.752;2023-04-26T03:26:24;102070.97;;;0.35;nan
23321;BME280;33376;51.306;4.752;2023-04-26T03:28:50;102076.25;;;0.47;nan
23321;BME280;33376;51.306;4.752;2023-04-26T03:31:15;102081.53;;;0.56;nan
23321;BME280;33376;51.306;4.752;2023-04-26T03:33:40;102080.66;;;0.54;nan
23321;BME280;33376;51.306;4.752;2023-04-26T03:36:06;102081.47;;;0.47;nan
23321;BME280;33376;51.306;4.752;2023-04-26T03:38:31;102079.72;;;0.41;nan
23321;BME280;33376;51.306;4.752;2023-04-26T03:40:56;102076.19;;;0.38;nan
23321;BME280;33376;51.306;4.752;2023-04-26T03:43:22;102073.63;;;0.42;nan
23321;BME280;33376;51.306;4.752;2023-04-26T03:45:50;102076.25;;;0.47;nan
23321;BME280;33376;51.306;4.752;2023-04-26T03:48:16;102069.28;;;0.43;nan
23321;BME280;33376;51.306;4.752;2023-04-26T03:50:41;102065.78;;;0.42;nan
23321;BME280;33376;51.306;4.752;2023-04-26T03:53:09;102071.91;;;0.43;nan
23321;BME280;33376;51.306;4.752;2023-04-26T03:55:41;102067.59;;;0.48;nan
23321;BME280;33376;51.306;4.752;2023-04-26T03:58:06;102065.81;;;0.47;nan
23321;BME280;33376;51.306;4.752;2023-04-26T04:00:38;102065.81;;;0.50;nan
23321;BME280;33376;51.306;4.752;2023-04-26T04:03:04;102064.97;;;0.49;nan
23321;BME280;33376;51.306;4.752;2023-04-26T04:05:29;102067.59;;;0.51;nan
23321;BME280;33376;51.306;4.752;2023-04-26T04:07:54;102069.31;;;0.49;nan
23321;BME280;33376;51.306;4.752;2023-04-26T04:10:21;102066.72;;;0.50;nan
23321;BME280;33376;51.306;4.752;2023-04-26T04:12:47;102063.22;;;0.53;nan
23321;BME280;33376;51.306;4.752;2023-04-26T04:15:13;102071.94;;;0.55;nan
23321;BME280;33376;51.306;4.752;2023-04-26T04:17:38;102072.81;;;0.54;nan
23321;BME280;33376;51.306;4.752;2023-04-26T04:20:03;102058.06;;;0.60;nan
23321;BME280;33376;51.306;4.752;2023-04-26T04:22:31;102069.41;;;0.64;nan
23321;BME280;33376;51.306;4.752;2023-04-26T04:24:56;102066.81;;;0.67;nan
23321;BME280;33376;51.306;4.752;2023-04-26T04:27:21;102061.59;;;0.65;nan
23321;BME280;33376;51.306;4.752;2023-04-26T04:29:47;102068.50;;;0.59;nan
23321;BME280;33376;51.306;4.752;2023-04-26T04:32:12;102065.03;;;0.63;nan
23321;BME280;33376;51.306;4.752;2023-04-26T04:34:39;102069.41;;;0.67;nan
23321;BME280;33376;51.306;4.752;2023-04-26T04:37:05;102061.59;;;0.67;nan
23321;BME280;33376;51.306;4.752;2023-04-26T04:39:31;102062.53;;;0.85;nan
23321;BME280;33376;51.306;4.752;2023-04-26T04:41:56;102052.09;;;0.85;nan
23321;BME280;33376;51.306;4.752;2023-04-26T04:44:22;102053.00;;;0.95;nan
23321;BME280;33376;51.306;4.752;2023-04-26T04:46:48;102057.31;;;0.88;nan
23321;BME280;33376;51.306;4.752;2023-04-26T04:49:13;102058.25;;;1.04;nan
23321;BME280;33376;51.306;4.752;2023-04-26T04:51:39;102054.81;;;1.20;nan
23321;BME280;33376;51.306;4.752;2023-04-26T04:54:14;102047.03;;;1.44;nan
23321;BME280;33376;51.306;4.752;2023-04-26T04:56:39;102044.44;;;1.50;nan
23321;BME280;33376;51.306;4.752;2023-04-26T04:59:05;102040.09;;;1.57;nan
23321;BME280;33376;51.306;4.752;2023-04-26T05:01:31;102046.16;;;1.34;nan
23321;BME280;33376;51.306;4.752;2023-04-26T05:03:57;102046.16;;;1.31;nan
23321;BME280;33376;51.306;4.752;2023-04-26T05:06:23;102052.25;;;1.24;nan
23321;BME280;33376;51.306;4.752;2023-04-26T05:08:49;102046.16;;;1.39;nan
23321;BME280;33376;51.306;4.752;2023-04-26T05:11:15;102042.69;;;1.46;nan
23321;BME280;33376;51.306;4.752;2023-04-26T05:13:40;102031.41;;;1.55;nan
23321;BME280;33376;51.306;4.752;2023-04-26T05:16:06;102034.00;;;1.86;nan
23321;BME280;33376;51.306;4.752;2023-04-26T05:18:32;102047.97;;;1.88;nan
23321;BME280;33376;51.306;4.752;2023-04-26T05:20:57;102045.34;;;1.90;nan
23321;BME280;33376;51.306;4.752;2023-04-26T05:23:23;102040.97;;;2.08;nan
23321;BME280;33376;51.306;4.752;2023-04-26T05:25:48;102021.63;;;2.63;nan
23321;BME280;33376;51.306;4.752;2023-04-26T05:28:14;102027.84;;;2.34;nan
23321;BME280;33376;51.306;4.752;2023-04-26T05:30:39;102031.28;;;2.48;nan
23321;BME280;33376;51.306;4.752;2023-04-26T05:33:05;102033.03;;;2.55;nan
23321;BME280;33376;51.306;4.752;2023-04-26T05:35:31;102032.84;;;2.98;nan
23321;BME280;33376;51.306;4.752;2023-04-26T05:37:56;102037.03;;;3.33;nan
23321;BME280;33376;51.306;4.752;2023-04-26T05:40:22;102029.13;;;3.37;nan
23321;BME280;33376;51.306;4.752;2023-04-26T05:42:47;102041.47;;;3.19;nan
23321;BME280;33376;51.306;4.752;2023-04-26T05:45:12;102039.75;;;3.13;nan
23321;BME280;33376;51.306;4.752;2023-04-26T05:47:38;102053.69;;;3.18;nan
23321;BME280;33376;51.306;4.752;2023-04-26T05:50:03;102053.75;;;3.12;nan
23321;BME280;33376;51.306;4.752;2023-04-26T05:52:28;102065.94;;;3.15;nan
23321;BME280;33376;51.306;4.752;2023-04-26T05:54:55;102066.78;;;3.21;nan
23321;BME280;33376;51.306;4.752;2023-04-26T05:57:20;102065.84;;;3.34;nan
23321;BME280;33376;51.306;4.752;2023-04-26T05:59:45;102066.66;;;3.44;nan
23321;BME280;33376;51.306;4.752;2023-04-26T06:02:10;102057.34;;;4.17;nan
23321;BME280;33376;51.306;4.752;2023-04-26T06:04:36;102064.28;;;4.24;nan
23321;BME280;33376;51.306;4.752;2023-04-26T06:07:01;102066.25;;;4.01;nan
23321;BME280;33376;51.306;4.752;2023-04-26T06:09:26;102070.56;;;4.06;nan
23321;BME280;33376;51.306;4.752;2023-04-26T06:11:52;102073.06;;;4.20;nan
23321;BME280;33376;51.306;4.752;2023-04-26T06:14:17;102069.41;;;4.37;nan
23321;BME280;33376;51.306;4.752;2023-04-26T06:16:42;102069.25;;;4.53;nan
23321;BME280;33376;51.306;4.752;2023-04-26T06:19:07;102067.28;;;4.73;nan
23321;BME280;33376;51.306;4.752;2023-04-26T06:21:33;102062.66;;;4.93;nan
23321;BME280;33376;51.306;4.752;2023-04-26T06:23:58;102069.41;;;5.13;nan
23321;BME280;33376;51.306;4.752;2023-04-26T06:26:23;102058.78;;;5.22;nan
23321;BME280;33376;51.306;4.752;2023-04-26T06:28:48;102065.69;;;5.29;nan
23321;BME280;33376;51.306;4.752;2023-04-26T06:31:14;102067.25;;;5.44;nan
23321;BME280;33376;51.306;4.752;2023-04-26T06:33:39;102074.19;;;5.48;nan
23321;BME280;33376;51.306;4.752;2023-04-26T06:36:04;102077.19;;;5.81;nan
23321;BME280;33376;51.306;4.752;2023-04-26T06:38:29;102080.28;;;6.09;nan
23321;BME280;33376;51.306;4.752;2023-04-26T06:40:55;102074.19;;;6.54;nan
23321;BME280;33376;51.306;4.752;2023-04-26T06:43:20;102068.97;;;6.97;nan
23321;BME280;33376;51.306;4.752;2023-04-26T06:45:46;102079.25;;;7.09;nan
23321;BME280;33376;51.306;4.752;2023-04-26T06:48:11;102077.66;;;7.43;nan
23321;BME280;33376;51.306;4.752;2023-04-26T06:50:37;102095.84;;;7.55;nan
23321;BME280;33376;51.306;4.752;2023-04-26T06:53:04;102095.97;;;7.87;nan
23321;BME280;33376;51.306;4.752;2023-04-26T06:55:29;102118.72;;;7.56;nan
23321;BME280;33376;51.306;4.752;2023-04-26T06:57:55;102119.16;;;7.75;nan
23321;BME280;33376;51.306;4.752;2023-04-26T07:00:20;102138.97;;;7.94;nan
23321;BME280;33376;51.306;4.752;2023-04-26T07:02:46;102156.69;;;7.49;nan
23321;BME280;33376;51.306;4.752;2023-04-26T07:05:11;102155.06;;;7.83;nan
23321;BME280;33376;51.306;4.752;2023-04-26T07:07:37;102145.00;;;9.03;nan
23321;BME280;33376;51.306;4.752;2023-04-26T07:10:02;102175.34;;;8.89;nan
23321;BME280;33376;51.306;4.752;2023-04-26T07:12:28;102192.84;;;8.93;nan
23321;BME280;33376;51.306;4.752;2023-04-26T07:14:55;102214.16;;;8.87;nan
23321;BME280;33376;51.306;4.752;2023-04-26T07:17:20;102219.22;;;9.29;nan
23321;BME280;33376;51.306;4.752;2023-04-26T07:19:46;102247.09;;;8.39;nan
23321;BME280;33376;51.306;4.752;2023-04-26T07:22:11;102246.13;;;8.43;nan
23321;BME280;33376;51.306;4.752;2023-04-26T07:24:36;102245.81;;;8.55;nan
23321;BME280;33376;51.306;4.752;2023-04-26T07:27:01;102253.75;;;8.17;nan
23321;BME280;33376;51.306;4.752;2023-04-26T07:29:27;102257.50;;;8.47;nan
23321;BME280;33376;51.306;4.752;2023-04-26T07:31:52;102247.50;;;9.28;nan
23321;BME280;33376;51.306;4.752;2023-04-26T07:34:18;102232.34;;;11.03;nan
23321;BME280;33376;51.306;4.752;2023-04-26T07:36:43;102223.00;;;11.41;nan
23321;BME280;33376;51.306;4.752;2023-04-26T07:39:09;102220.13;;;11.71;nan
23321;BME280;33376;51.306;4.752;2023-04-26T07:41:35;102221.09;;;11.92;nan
23321;BME280;33376;51.306;4.752;2023-04-26T07:44:00;102222.63;;;13.27;nan
23321;BME280;33376;51.306;4.752;2023-04-26T07:46:26;102193.81;;;14.48;nan
23321;BME280;33376;51.306;4.752;2023-04-26T07:48:51;102116.31;;;15.01;nan
23321;BME280;33376;51.306;4.752;2023-04-26T07:51:16;102016.31;;;14.56;nan
23321;BME280;33376;51.306;4.752;2023-04-26T07:53:42;101971.13;;;14.02;nan
23321;BME280;33376;51.306;4.752;2023-04-26T07:56:07;101950.31;;;13.75;nan
23321;BME280;33376;51.306;4.752;2023-04-26T07:58:36;101900.00;;;12.96;nan
23321;BME280;33376;51.306;4.752;2023-04-26T08:01:03;101906.94;;;13.71;nan
23321;BME280;33376;51.306;4.752;2023-04-26T08:03:28;101926.94;;;14.31;nan
23321;BME280;33376;51.306;4.752;2023-04-26T08:05:53;101822.13;;;14.60;nan
23321;BME280;33376;51.306;4.752;2023-04-26T08:08:19;101840.41;;;13.53;nan
23321;BME280;33376;51.306;4.752;2023-04-26T08:10:44;101820.50;;;14.26;nan
23321;BME280;33376;51.306;4.752;2023-04-26T08:13:10;101761.19;;;14.04;nan
23321;BME280;33376;51.306;4.752;2023-04-26T08:15:35;101705.50;;;14.31;nan
23321;BME280;33376;51.306;4.752;2023-04-26T08:18:01;101754.66;;;14.58;nan
23321;BME280;33376;51.306;4.752;2023-04-26T08:20:26;101681.34;;;14.63;nan
23321;BME280;33376;51.306;4.752;2023-04-26T08:22:55;101687.22;;;13.27;nan
23321;BME280;33376;51.306;4.752;2023-04-26T08:25:21;101710.84;;;12.46;nan
23321;BME280;33376;51.306;4.752;2023-04-26T08:27:46;101766.88;;;12.25;nan
23321;BME280;33376;51.306;4.752;2023-04-26T08:30:11;101883.31;;;11.56;nan
23321;BME280;33376;51.306;4.752;2023-04-26T08:32:37;101823.59;;;12.05;nan
23321;BME280;33376;51.306;4.752;2023-04-26T08:35:02;101854.66;;;11.43;nan
23321;BME280;33376;51.306;4.752;2023-04-26T08:37:28;101868.50;;;9.94;nan
23321;BME280;33376;51.306;4.752;2023-04-26T08:39:53;101903.97;;;9.90;nan
23321;BME280;33376;51.306;4.752;2023-04-26T08:42:18;101969.00;;;10.49;nan
23321;BME280;33376;51.306;4.752;2023-04-26T08:44:45;101969.94;;;10.71;nan
23321;BME280;33376;51.306;4.752;2023-04-26T08:49:39;101913.88;;;12.47;nan
23321;BME280;33376;51.306;4.752;2023-04-26T08:52:08;101869.66;;;11.65;nan
23321;BME280;33376;51.306;4.752;2023-04-26T08:54:35;101823.28;;;12.50;nan
23321;BME280;33376;51.306;4.752;2023-04-26T08:57:01;101801.00;;;12.15;nan
23321;BME280;33376;51.306;4.752;2023-04-26T08:59:28;101856.91;;;12.32;nan
23321;BME280;33376;51.306;4.752;2023-04-26T09:01:55;101820.16;;;12.96;nan
23321;BME280;33376;51.306;4.752;2023-04-26T09:04:21;101784.03;;;13.26;nan
23321;BME280;33376;51.306;4.752;2023-04-26T09:06:46;101721.22;;;13.22;nan
23321;BME280;33376;51.306;4.752;2023-04-26T09:09:13;101721.97;;;12.54;nan
23321;BME280;33376;51.306;4.752;2023-04-26T09:11:54;101706.00;;;13.41;nan
23321;BME280;33376;51.306;4.752;2023-04-26T09:14:19;101736.59;;;12.81;nan
23321;BME280;33376;51.306;4.752;2023-04-26T09:16:45;101687.47;;;12.53;nan
23321;BME280;33376;51.306;4.752;2023-04-26T09:19:10;101722.69;;;11.25;nan
23321;BME280;33376;51.306;4.752;2023-04-26T09:21:42;101774.59;;;11.12;nan
23321;BME280;33376;51.306;4.752;2023-04-26T09:24:11;101782.84;;;11.26;nan
23321;BME280;33376;51.306;4.752;2023-04-26T09:26:36;101800.41;;;11.08;nan
23321;BME280;33376;51.306;4.752;2023-04-26T09:29:12;101758.75;;;11.30;nan
23321;BME280;33376;51.306;4.752;2023-04-26T09:31:44;101769.88;;;11.58;nan
23321;BME280;33376;51.306;4.752;2023-04-26T09:34:10;101739.19;;;11.92;nan
23321;BME280;33376;51.306;4.752;2023-04-26T09:36:48;101726.34;;;12.20;nan
23321;BME280;33376;51.306;4.752;2023-04-26T09:39:14;101707.13;;;11.76;nan
23321;BME280;33376;51.306;4.752;2023-04-26T09:41:53;101725.53;;;11.60;nan
23321;BME280;33376;51.306;4.752;2023-04-26T09:44:21;101762.75;;;12.18;nan
23321;BME280;33376;51.306;4.752;2023-04-26T09:46:56;101706.88;;;12.55;nan
23321;BME280;33376;51.306;4.752;2023-04-26T09:49:23;101689.63;;;12.80;nan
23321;BME280;33376;51.306;4.752;2023-04-26T09:51:59;101593.09;;;12.77;nan
23321;BME280;33376;51.306;4.752;2023-04-26T09:57:05;101639.69;;;12.85;nan
23321;BME280;33376;51.306;4.752;2023-04-26T09:59:43;101626.00;;;12.76;nan
23321;BME280;33376;51.306;4.752;2023-04-26T10:02:12;101647.59;;;11.99;nan
23321;BME280;33376;51.306;4.752;2023-04-26T10:04:38;101626.31;;;12.87;nan
23321;BME280;33376;51.306;4.752;2023-04-26T10:07:03;101614.38;;;13.28;nan
23321;BME280;33376;51.306;4.752;2023-04-26T10:09:29;101650.94;;;13.42;nan
23321;BME280;33376;51.306;4.752;2023-04-26T10:11:54;101519.09;;;14.54;nan
23321;BME280;33376;51.306;4.752;2023-04-26T10:14:20;101453.63;;;13.90;nan
23321;BME280;33376;51.306;4.752;2023-04-26T10:16:46;101512.19;;;12.64;nan
23321;BME280;33376;51.306;4.752;2023-04-26T10:19:12;101553.00;;;12.47;nan
23321;BME280;33376;51.306;4.752;2023-04-26T10:21:38;101554.22;;;12.57;nan
23321;BME280;33376;51.306;4.752;2023-04-26T10:24:05;101519.56;;;12.76;nan
23321;BME280;33376;51.306;4.752;2023-04-26T10:26:49;101498.63;;;12.85;nan
23321;BME280;33376;51.306;4.752;2023-04-26T10:29:24;101450.97;;;13.45;nan
23321;BME280;33376;51.306;4.752;2023-04-26T10:34:33;101491.31;;;13.21;nan
23321;BME280;33376;51.306;4.752;2023-04-26T10:39:35;101523.28;;;13.84;nan
23321;BME280;33376;51.306;4.752;2023-04-26T10:42:17;101433.44;;;13.09;nan
23321;BME280;33376;51.306;4.752;2023-04-26T10:44:47;101406.88;;;13.39;nan
23321;BME280;33376;51.306;4.752;2023-04-26T10:47:33;101361.78;;;13.36;nan
23321;BME280;33376;51.306;4.752;2023-04-26T10:52:27;101498.84;;;12.48;nan
23321;BME280;33376;51.306;4.752;2023-04-26T10:54:56;101533.63;;;12.78;nan
23321;BME280;33376;51.306;4.752;2023-04-26T10:57:22;101496.09;;;12.50;nan
23321;BME280;33376;51.306;4.752;2023-04-26T11:02:51;101654.75;;;11.59;nan
23321;BME280;33376;51.306;4.752;2023-04-26T11:10:57;101602.59;;;12.13;nan
23321;BME280;33376;51.306;4.752;2023-04-26T11:13:23;101641.88;;;11.50;nan
23321;BME280;33376;51.306;4.752;2023-04-26T11:15:51;101688.91;;;11.28;nan
23321;BME280;33376;51.306;4.752;2023-04-26T11:18:17;101703.44;;;11.40;nan
23321;BME280;33376;51.306;4.752;2023-04-26T11:20:43;101632.63;;;12.33;nan
23321;BME280;33376;51.306;4.752;2023-04-26T11:23:08;101511.44;;;12.45;nan
23321;BME280;33376;51.306;4.752;2023-04-26T11:25:34;101344.81;;;13.07;nan
23321;BME280;33376;51.306;4.752;2023-04-26T11:27:59;101384.81;;;13.67;nan
23321;BME280;33376;51.306;4.752;2023-04-26T11:30:29;101416.41;;;13.43;nan
23321;BME280;33376;51.306;4.752;2023-04-26T11:32:55;101367.97;;;13.37;nan
23321;BME280;33376;51.306;4.752;2023-04-26T11:35:21;101472.94;;;12.52;nan
23321;BME280;33376;51.306;4.752;2023-04-26T11:37:47;101498.41;;;12.06;nan
23321;BME280;33376;51.306;4.752;2023-04-26T11:40:14;101525.88;;;12.05;nan
23321;BME280;33376;51.306;4.752;2023-04-26T11:42:40;101505.09;;;11.79;nan
23321;BME280;33376;51.306;4.752;2023-04-26T11:45:06;101472.72;;;12.05;nan
23321;BME280;33376;51.306;4.752;2023-04-26T11:47:32;101435.75;;;12.18;nan
23321;BME280;33376;51.306;4.752;2023-04-26T11:49:58;101478.56;;;11.77;nan
23321;BME280;33376;51.306;4.752;2023-04-26T11:52:24;101478.97;;;12.55;nan
23321;BME280;33376;51.306;4.752;2023-04-26T11:54:56;101419.81;;;12.01;nan
23321;BME280;33376;51.306;4.752;2023-04-26T11:57:25;101377.06;;;12.86;nan
23321;BME280;33376;51.306;4.752;2023-04-26T12:00:05;101314.78;;;12.26;nan
23321;BME280;33376;51.306;4.752;2023-04-26T12:02:34;101373.84;;;12.64;nan
23321;BME280;33376;51.306;4.752;2023-04-26T12:04:59;101362.38;;;13.41;nan
23321;BME280;33376;51.306;4.752;2023-04-26T12:07:24;101277.75;;;13.74;nan
23321;BME280;33376;51.306;4.752;2023-04-26T12:09:50;101207.91;;;12.96;nan
23321;BME280;33376;51.306;4.752;2023-04-26T12:12:15;101254.78;;;13.14;nan
23321;BME280;33376;51.306;4.752;2023-04-26T12:14:40;101234.88;;;13.35;nan
23321;BME280;33376;51.306;4.752;2023-04-26T12:17:06;101308.47;;;12.60;nan
23321;BME280;33376;51.306;4.752;2023-04-26T12:19:38;101309.00;;;13.43;nan
23321;BME280;33376;51.306;4.752;2023-04-26T12:22:04;101402.19;;;13.58;nan
23321;BME280;33376;51.306;4.752;2023-04-26T12:24:30;101384.78;;;13.96;nan
23321;BME280;33376;51.306;4.752;2023-04-26T12:26:58;101519.47;;;13.10;nan
23321;BME280;33376;51.306;4.752;2023-04-26T12:29:24;101444.94;;;12.77;nan
23321;BME280;33376;51.306;4.752;2023-04-26T12:31:50;101417.81;;;13.03;nan
23321;BME280;33376;51.306;4.752;2023-04-26T12:34:15;101451.25;;;12.59;nan
23321;BME280;33376;51.306;4.752;2023-04-26T12:36:40;101490.44;;;13.05;nan
23321;BME280;33376;51.306;4.752;2023-04-26T12:39:08;101511.38;;;13.29;nan
23321;BME280;33376;51.306;4.752;2023-04-26T12:41:34;101441.84;;;13.17;nan
23321;BME280;33376;51.306;4.752;2023-04-26T12:43:59;101462.38;;;12.83;nan
23321;BME280;33376;51.306;4.752;2023-04-26T12:46:24;101485.75;;;12.61;nan
23321;BME280;33376;51.306;4.752;2023-04-26T12:48:50;101509.41;;;12.50;nan
23321;BME280;33376;51.306;4.752;2023-04-26T12:51:15;101578.75;;;12.96;nan
23321;BME280;33376;51.306;4.752;2023-04-26T12:53:40;101436.44;;;13.03;nan
23321;BME280;33376;51.306;4.752;2023-04-26T12:56:06;101483.16;;;12.76;nan
23321;BME280;33376;51.306;4.752;2023-04-26T12:58:31;101430.38;;;12.52;nan
23321;BME280;33376;51.306;4.752;2023-04-26T13:00:56;101447.78;;;13.23;nan
23321;BME280;33376;51.306;4.752;2023-04-26T13:03:22;101503.88;;;12.87;nan
23321;BME280;33376;51.306;4.752;2023-04-26T13:05:47;101480.50;;;13.09;nan
23321;BME280;33376;51.306;4.752;2023-04-26T13:08:12;101488.44;;;12.93;nan
23321;BME280;33376;51.306;4.752;2023-04-26T13:10:37;101525.22;;;12.19;nan
23321;BME280;33376;51.306;4.752;2023-04-26T13:13:03;101537.72;;;11.62;nan
23321;BME280;33376;51.306;4.752;2023-04-26T13:15:28;101551.72;;;12.54;nan
23321;BME280;33376;51.306;4.752;2023-04-26T13:17:54;101524.44;;;12.34;nan
23321;BME280;33376;51.306;4.752;2023-04-26T13:20:19;101511.69;;;12.90;nan
23321;BME280;33376;51.306;4.752;2023-04-26T13:22:44;101481.63;;;13.20;nan
23321;BME280;33376;51.306;4.752;2023-04-26T13:25:10;101412.25;;;13.53;nan
23321;BME280;33376;51.306;4.752;2023-04-26T13:27:37;101448.22;;;13.31;nan
23321;BME280;33376;51.306;4.752;2023-04-26T13:30:02;101391.00;;;13.22;nan
23321;BME280;33376;51.306;4.752;2023-04-26T13:32:28;101430.06;;;12.73;nan